createdAt,value
2022-08-27T00:00:53.366Z,3.30
2022-08-27T00:03:21.755Z,3.47
2022-08-27T00:05:50.871Z,3.00
2022-08-27T00:08:24.354Z,3.77
2022-08-27T00:10:58.787Z,3.70
2022-08-27T00:13:29.489Z,3.57
2022-08-27T00:16:01.862Z,3.23
2022-08-27T00:18:30.434Z,3.60
2022-08-27T00:20:58.564Z,3.67
2022-08-27T00:23:26.938Z,3.30
2022-08-27T00:25:57.126Z,3.47
2022-08-27T00:28:26.992Z,3.40
2022-08-27T00:30:56.497Z,3.63
2022-08-27T00:33:25.362Z,3.50
2022-08-27T00:35:54.278Z,3.77
2022-08-27T00:38:24.776Z,3.70
2022-08-27T00:40:53.731Z,4.07
2022-08-27T00:43:25.187Z,3.53
2022-08-27T00:45:56.780Z,3.50
2022-08-27T00:48:29.087Z,3.87
2022-08-27T00:50:58.036Z,4.03
2022-08-27T00:53:30.167Z,3.87
2022-08-27T00:56:03.788Z,3.57
2022-08-27T00:58:36.467Z,3.97
2022-08-27T01:01:07.279Z,3.63
2022-08-27T01:03:36.325Z,3.90
2022-08-27T01:06:07.665Z,4.40
2022-08-27T01:08:43.079Z,4.47
2022-08-27T01:11:11.630Z,3.67
2022-08-27T01:14:00.114Z,4.13
2022-08-27T01:16:38.312Z,4.63
2022-08-27T01:19:15.484Z,4.57
2022-08-27T01:21:49.943Z,4.13
2022-08-27T01:24:31.655Z,4.27
2022-08-27T01:27:01.638Z,4.27
2022-08-27T01:29:31.065Z,4.13
2022-08-27T01:32:06.683Z,4.00
2022-08-27T01:34:35.114Z,4.00
2022-08-27T01:37:04.261Z,4.00
2022-08-27T01:39:37.822Z,4.33
2022-08-27T01:42:11.873Z,4.47
2022-08-27T01:44:47.703Z,4.37
2022-08-27T01:47:21.292Z,4.37
2022-08-27T01:49:55.880Z,4.53
2022-08-27T01:52:39.098Z,4.20
2022-08-27T01:55:13.876Z,4.30
2022-08-27T01:57:43.629Z,4.33
2022-08-27T02:00:17.156Z,4.23
2022-08-27T02:02:48.137Z,4.40
2022-08-27T02:05:18.020Z,4.20
2022-08-27T02:07:48.954Z,4.70
2022-08-27T02:10:24.608Z,3.93
2022-08-27T02:12:55.115Z,4.07
2022-08-27T02:15:26.798Z,4.50
2022-08-27T02:18:02.755Z,4.90
2022-08-27T02:20:37.406Z,5.13
2022-08-27T02:23:10.037Z,4.93
2022-08-27T02:25:42.702Z,4.80
2022-08-27T02:28:12.486Z,4.97
2022-08-27T02:30:42.997Z,5.30
2022-08-27T02:33:16.160Z,4.97
2022-08-27T02:35:46.382Z,5.47
2022-08-27T02:38:16.217Z,5.70
2022-08-27T02:40:47.804Z,5.73
2022-08-27T02:43:25.338Z,5.23
2022-08-27T02:45:55.740Z,5.23
2022-08-27T02:48:28.124Z,5.30
2022-08-27T02:50:58.668Z,5.33
2022-08-27T02:53:30.244Z,4.83
2022-08-27T02:56:03.904Z,4.87
2022-08-27T02:58:36.656Z,5.17
2022-08-27T03:01:13.673Z,5.00
2022-08-27T03:03:44.477Z,5.10
2022-08-27T03:06:15.003Z,5.50
2022-08-27T03:08:52.623Z,5.07
2022-08-27T03:11:26.289Z,5.40
2022-08-27T03:13:55.575Z,5.37
2022-08-27T03:16:28.099Z,5.13
2022-08-27T03:18:57.290Z,5.87
2022-08-27T03:21:27.686Z,5.73
2022-08-27T03:23:57.309Z,5.60
2022-08-27T03:26:28.850Z,5.30
2022-08-27T03:29:00.156Z,5.40
2022-08-27T03:31:31.596Z,5.47
2022-08-27T03:34:06.249Z,5.60
2022-08-27T03:36:36.313Z,5.77
2022-08-27T03:39:05.611Z,5.43
2022-08-27T03:41:53.972Z,5.37
2022-08-27T03:44:26.992Z,6.10
2022-08-27T03:46:56.835Z,5.37
2022-08-27T03:49:28.001Z,5.60
2022-08-27T03:51:58.306Z,5.20
2022-08-27T03:54:28.098Z,5.67
2022-08-27T03:57:04.065Z,5.30
2022-08-27T03:59:33.837Z,5.03
2022-08-27T04:02:07.773Z,5.03
2022-08-27T04:04:38.749Z,5.97
2022-08-27T04:07:09.471Z,5.57
2022-08-27T04:09:39.362Z,5.63
2022-08-27T04:12:12.914Z,5.47
2022-08-27T04:14:41.743Z,5.57
2022-08-27T04:17:11.291Z,5.93
2022-08-27T04:19:42.876Z,5.93
2022-08-27T04:22:14.440Z,5.30
2022-08-27T04:24:46.412Z,5.40
2022-08-27T04:27:18.096Z,5.33
2022-08-27T04:29:49.499Z,5.30
2022-08-27T04:32:21.612Z,5.50
2022-08-27T04:34:55.914Z,6.00
2022-08-27T04:37:27.166Z,5.50
2022-08-27T04:39:56.251Z,5.40
2022-08-27T04:42:27.148Z,5.23
2022-08-27T04:45:00.356Z,5.90
2022-08-27T04:47:29.710Z,5.63
2022-08-27T04:50:00.849Z,5.77
2022-08-27T04:52:34.832Z,5.53
2022-08-27T04:55:12.574Z,5.60
2022-08-27T04:57:42.594Z,5.90
2022-08-27T05:00:12.068Z,6.17
2022-08-27T05:02:40.534Z,6.03
2022-08-27T05:05:13.121Z,5.60
2022-08-27T05:07:44.279Z,5.70
2022-08-27T05:10:15.015Z,5.97
2022-08-27T05:12:46.982Z,6.13
2022-08-27T05:15:17.305Z,6.43
2022-08-27T05:17:49.487Z,6.37
2022-08-27T05:20:19.826Z,5.83
2022-08-27T05:22:49.168Z,6.00
2022-08-27T05:25:17.411Z,5.73
2022-08-27T05:27:49.964Z,5.87
2022-08-27T05:30:19.267Z,6.47
2022-08-27T05:32:48.025Z,6.00
2022-08-27T05:35:20.234Z,6.53
2022-08-27T05:37:50.814Z,6.43
2022-08-27T05:40:20.858Z,6.23
2022-08-27T05:42:54.984Z,6.23
2022-08-27T05:45:24.416Z,6.63
2022-08-27T05:47:52.855Z,7.10
2022-08-27T05:50:23.696Z,7.37
2022-08-27T05:52:55.310Z,7.07
2022-08-27T05:55:23.386Z,7.17
2022-08-27T05:57:55.416Z,6.57
2022-08-27T06:00:41.802Z,7.37
2022-08-27T06:03:15.044Z,7.30
2022-08-27T06:05:47.364Z,6.90
2022-08-27T06:08:16.748Z,7.27
2022-08-27T06:10:45.619Z,6.97
2022-08-27T06:13:15.866Z,7.63
2022-08-27T06:15:44.031Z,7.33
2022-08-27T06:18:13.610Z,7.67
2022-08-27T06:20:41.866Z,7.67
2022-08-27T06:23:11.707Z,7.60
2022-08-27T06:25:43.522Z,7.83
2022-08-27T06:28:13.684Z,7.03
2022-08-27T06:30:43.876Z,7.10
2022-08-27T06:33:12.817Z,7.33
2022-08-27T06:35:44.393Z,7.57
2022-08-27T06:38:12.758Z,7.40
2022-08-27T06:40:44.456Z,7.07
2022-08-27T06:43:13.278Z,6.93
2022-08-27T06:45:43.185Z,7.07
2022-08-27T06:48:12.935Z,7.03
2022-08-27T06:50:42.500Z,6.67
2022-08-27T06:53:11.178Z,6.90
2022-08-27T06:55:43.652Z,6.20
2022-08-27T06:58:12.673Z,6.43
2022-08-27T07:00:46.091Z,6.37
2022-08-27T07:03:17.551Z,6.53
2022-08-27T07:05:46.328Z,5.70
2022-08-27T07:08:15.012Z,5.67
2022-08-27T07:10:44.486Z,5.47
2022-08-27T07:13:13.794Z,5.53
2022-08-27T07:15:44.179Z,5.73
2022-08-27T07:18:12.609Z,5.73
2022-08-27T07:20:43.276Z,5.07
2022-08-27T07:23:13.348Z,5.30
2022-08-27T07:25:45.870Z,5.20
2022-08-27T07:28:15.171Z,5.40
2022-08-27T07:30:46.350Z,5.23
2022-08-27T07:33:15.336Z,5.30
2022-08-27T07:35:44.380Z,5.37
2022-08-27T07:38:15.689Z,5.33
2022-08-27T07:40:44.400Z,5.20
2022-08-27T07:43:31.016Z,4.90
2022-08-27T07:46:03.958Z,4.93
2022-08-27T07:48:33.854Z,5.00
2022-08-27T07:51:05.988Z,4.87
2022-08-27T07:53:35.060Z,4.80
2022-08-27T07:56:08.033Z,4.50
2022-08-27T07:58:36.971Z,4.33
2022-08-27T08:01:07.308Z,4.37
2022-08-27T08:03:36.068Z,4.37
2022-08-27T08:06:06.584Z,3.93
2022-08-27T08:08:40.846Z,4.20
2022-08-27T08:11:15.675Z,4.33
2022-08-27T08:13:45.040Z,4.50
2022-08-27T08:16:15.636Z,4.07
2022-08-27T08:18:44.269Z,4.60
2022-08-27T08:21:15.049Z,3.97
2022-08-27T08:23:44.670Z,4.03
2022-08-27T08:26:14.228Z,3.47
2022-08-27T08:28:43.009Z,3.20
2022-08-27T08:31:11.652Z,3.17
2022-08-27T08:33:41.819Z,3.33
2022-08-27T08:36:12.594Z,3.80
2022-08-27T08:38:41.675Z,3.30
2022-08-27T08:49:42.794Z,3.97
2022-08-27T08:52:30.888Z,3.93
2022-08-27T08:55:14.431Z,3.60
2022-08-27T08:57:55.300Z,4.00
2022-08-27T09:00:26.951Z,3.80
2022-08-27T09:02:56.184Z,3.30
2022-08-27T09:05:28.987Z,3.40
2022-08-27T09:08:31.999Z,3.10
2022-08-27T09:11:06.335Z,3.20
2022-08-27T09:13:43.127Z,2.90
2022-08-27T09:16:20.196Z,2.60
2022-08-27T09:18:51.276Z,2.67
2022-08-27T09:21:34.128Z,2.80
2022-08-27T10:05:59.509Z,2.13
2022-08-27T10:08:40.414Z,2.30
2022-08-27T10:11:17.526Z,2.30
2022-08-27T10:13:53.373Z,2.70
2022-08-27T10:16:51.273Z,2.37
2022-08-27T10:19:46.235Z,2.37
2022-08-27T10:22:28.000Z,2.10
2022-08-27T10:25:09.629Z,2.40
2022-08-27T10:27:46.932Z,2.40
2022-08-27T10:30:19.528Z,2.30
2022-08-27T10:33:05.927Z,2.40
2022-08-27T10:35:48.085Z,2.47
2022-08-27T10:38:42.411Z,2.20
2022-08-27T10:41:19.469Z,2.40
2022-08-27T10:44:21.938Z,2.03
2022-08-27T10:47:10.417Z,2.20
2022-08-27T10:49:47.154Z,2.20
2022-08-27T10:52:25.482Z,2.47
2022-08-27T10:55:15.538Z,2.40
2022-08-27T10:58:17.643Z,2.50
2022-08-27T13:30:36.144Z,1.80
2022-08-27T13:33:09.056Z,2.03
2022-08-27T13:35:38.229Z,1.60
2022-08-27T13:38:07.361Z,1.60
2022-08-27T13:40:38.414Z,1.90
2022-08-27T13:43:14.450Z,2.23
2022-08-27T13:45:49.432Z,2.13
2022-08-27T13:48:22.363Z,1.90
2022-08-27T13:50:56.475Z,1.80
2022-08-27T13:53:46.636Z,1.80
2022-08-27T13:56:27.418Z,1.87
2022-08-27T13:58:57.800Z,2.10
2022-08-27T14:01:32.808Z,2.10
2022-08-27T14:04:07.000Z,2.03
2022-08-27T14:06:49.922Z,1.87
2022-08-27T14:09:24.600Z,2.00
2022-08-27T14:12:05.000Z,1.77
2022-08-27T14:15:15.700Z,2.00
2022-08-27T14:17:50.963Z,1.80
2022-08-27T14:20:22.998Z,1.80
2022-08-27T14:22:56.021Z,1.70
2022-08-27T14:25:25.217Z,2.10
2022-08-27T14:27:59.408Z,1.70
2022-08-27T14:30:29.349Z,2.07
2022-08-27T14:33:07.155Z,2.17
2022-08-27T14:35:37.547Z,1.97
2022-08-27T14:38:22.726Z,2.20
2022-08-27T14:40:55.849Z,2.10
2022-08-27T14:43:25.235Z,2.10
2022-08-27T14:45:55.063Z,2.13
2022-08-27T14:48:37.860Z,1.80
2022-08-27T14:51:26.247Z,2.27
2022-08-27T14:54:02.707Z,2.03
2022-08-27T14:56:31.371Z,2.07
2022-08-27T14:59:00.650Z,1.80
2022-08-27T15:01:29.571Z,2.13
2022-08-27T15:04:00.854Z,2.20
2022-08-27T15:06:29.397Z,2.00
2022-08-27T15:09:20.733Z,2.20
2022-08-27T15:11:55.596Z,2.00
2022-08-27T15:14:35.820Z,2.10
2022-08-27T15:17:12.289Z,2.30
2022-08-27T15:20:03.781Z,1.97
2022-08-27T15:22:43.977Z,2.17
2022-08-27T15:25:14.163Z,2.50
2022-08-27T15:27:42.573Z,2.30
2022-08-27T15:30:14.054Z,2.07
2022-08-27T15:32:44.783Z,2.30
2022-08-27T15:35:17.620Z,2.20
2022-08-27T15:37:46.802Z,2.57
2022-08-27T15:40:17.132Z,2.13
2022-08-27T15:42:46.139Z,2.30
2022-08-27T15:45:16.035Z,2.63
2022-08-27T15:47:45.753Z,2.33
2022-08-27T15:50:16.610Z,2.00
2022-08-27T15:52:46.243Z,2.87
2022-08-27T15:55:21.821Z,3.73
2022-08-27T15:57:50.460Z,4.10
2022-08-27T16:00:22.067Z,2.50
2022-08-27T16:02:51.162Z,3.60
2022-08-27T16:05:22.624Z,2.10
2022-08-27T16:07:51.503Z,2.77
2022-08-27T16:10:19.710Z,3.00
2022-08-27T16:12:47.959Z,2.60
2022-08-27T16:15:17.380Z,4.10
2022-08-27T16:17:46.381Z,4.37
2022-08-27T16:20:16.929Z,6.87
2022-08-27T16:22:47.551Z,4.80
2022-08-27T16:25:21.282Z,3.57
2022-08-27T16:27:50.927Z,3.50
2022-08-27T16:30:19.492Z,4.10
2022-08-27T16:32:50.879Z,7.43
2022-08-27T16:35:20.085Z,4.73
2022-08-27T16:37:49.650Z,2.50
2022-08-27T16:40:19.885Z,2.80
2022-08-27T16:42:51.933Z,2.23
2022-08-27T16:45:24.357Z,2.77
2022-08-27T16:48:11.023Z,2.93
2022-08-27T16:50:41.158Z,6.97
2022-08-27T16:53:13.903Z,4.80
2022-08-27T16:55:43.195Z,3.70
2022-08-27T16:58:19.717Z,2.63
2022-08-27T17:00:50.938Z,2.40
2022-08-27T17:03:19.414Z,2.87
2022-08-27T17:05:48.438Z,3.17
2022-08-27T17:08:21.273Z,3.17
2022-08-27T17:10:58.151Z,3.00
2022-08-27T17:13:29.568Z,3.30
2022-08-27T17:16:01.980Z,3.37
2022-08-27T17:18:30.717Z,3.10
2022-08-27T17:21:00.935Z,3.20
2022-08-27T17:23:34.012Z,5.80
2022-08-27T17:26:02.273Z,18.87
2022-08-27T17:28:30.775Z,4.23
2022-08-27T17:31:01.262Z,4.00
2022-08-27T17:33:33.160Z,4.10
2022-08-27T17:36:02.040Z,2.47
2022-08-27T17:38:33.863Z,2.20
2022-08-27T17:41:09.816Z,2.80
2022-08-27T17:43:37.921Z,2.90
2022-08-27T17:46:07.328Z,3.40
2022-08-27T17:48:36.439Z,3.53
2022-08-27T17:51:05.776Z,2.90
2022-08-27T17:53:35.691Z,2.50
2022-08-27T17:56:04.389Z,2.60
2022-08-27T17:58:35.327Z,2.80
2022-08-27T18:01:03.593Z,2.70
2022-08-27T18:03:47.863Z,3.13
2022-08-27T18:06:17.192Z,2.30
2022-08-27T18:08:47.890Z,2.37
2022-08-27T18:11:16.588Z,4.90
2022-08-27T18:13:45.326Z,2.13
2022-08-27T18:16:13.607Z,2.20
2022-08-27T18:18:41.852Z,2.60
2022-08-27T18:21:11.174Z,2.23
2022-08-27T18:23:45.891Z,2.30
2022-08-27T18:26:22.819Z,3.10
2022-08-27T18:29:03.854Z,3.10
2022-08-27T18:31:38.226Z,2.40
2022-08-27T18:34:07.841Z,2.43
2022-08-27T18:36:40.603Z,2.13
2022-08-27T18:39:09.323Z,1.90
2022-08-27T18:41:40.281Z,2.00
2022-08-27T18:44:17.552Z,1.87
2022-08-27T18:46:52.456Z,2.13
2022-08-27T18:49:22.878Z,2.20
2022-08-27T18:51:52.786Z,2.50
2022-08-27T18:54:22.861Z,2.20
2022-08-27T18:56:53.186Z,1.80
2022-08-27T18:59:25.840Z,2.30
2022-08-27T19:01:55.384Z,2.03
2022-08-27T19:04:24.835Z,2.00
2022-08-27T19:06:53.273Z,2.60
2022-08-27T19:09:21.744Z,1.90
2022-08-27T19:11:52.053Z,2.10
2022-08-27T19:14:20.252Z,2.27
2022-08-27T19:16:56.135Z,2.20
2022-08-27T19:19:27.291Z,2.17
2022-08-27T19:21:55.543Z,2.40
2022-08-27T19:24:24.886Z,2.40
2022-08-27T19:26:55.612Z,1.93
2022-08-27T19:29:24.111Z,2.10
2022-08-27T19:31:52.722Z,2.50
2022-08-27T19:34:21.279Z,2.63
2022-08-27T19:36:49.956Z,1.90
2022-08-27T19:39:18.597Z,2.47
2022-08-27T19:41:47.320Z,2.70
2022-08-27T19:44:24.304Z,2.30
2022-08-27T19:46:56.010Z,2.83
2022-08-27T19:49:27.735Z,2.20
2022-08-27T19:51:56.258Z,2.00
2022-08-27T19:54:32.686Z,2.47
2022-08-27T19:57:05.186Z,2.70
2022-08-27T19:59:41.357Z,2.70
2022-08-27T20:02:13.082Z,2.50
2022-08-27T20:05:07.277Z,2.70
2022-08-27T20:07:37.531Z,2.50
2022-08-27T20:10:08.418Z,2.67
2022-08-27T20:12:43.657Z,2.77
2022-08-27T20:15:17.100Z,2.73
2022-08-27T20:17:49.078Z,2.50
2022-08-27T20:20:23.997Z,2.83
2022-08-27T20:22:55.540Z,2.70
2022-08-27T20:25:27.342Z,3.13
2022-08-27T20:27:55.949Z,2.90
2022-08-27T20:30:28.993Z,2.47
